createdAt,value
2018-05-11T00:01:09.648Z,83.10
2018-05-11T00:03:37.138Z,83.00
2018-05-11T00:06:05.415Z,82.70
2018-05-11T00:08:33.674Z,82.70
2018-05-11T00:11:01.942Z,82.50
2018-05-11T00:13:29.508Z,82.50
2018-05-11T00:15:57.794Z,82.30
2018-05-11T00:18:26.162Z,82.30
2018-05-11T00:20:54.434Z,82.40
2018-05-11T00:23:22.131Z,82.40
2018-05-11T00:25:49.649Z,82.30
2018-05-11T00:28:17.125Z,82.30
2018-05-11T00:30:45.400Z,82.80
2018-05-11T00:33:13.678Z,82.70
2018-05-11T00:35:41.954Z,82.70
2018-05-11T00:38:19.401Z,82.70
2018-05-11T00:40:46.880Z,82.50
2018-05-11T00:43:14.427Z,82.60
2018-05-11T00:45:41.940Z,83.00
2018-05-11T00:48:09.463Z,82.70
2018-05-11T00:50:37.733Z,82.50
2018-05-11T00:53:07.499Z,82.40
2018-05-11T00:55:45.757Z,82.60
2018-05-11T00:58:13.273Z,82.50
2018-05-11T01:00:40.783Z,83.60
2018-05-11T01:03:09.048Z,82.00
2018-05-11T01:05:37.334Z,82.30
2018-05-11T01:08:05.654Z,82.40
2018-05-11T01:10:33.150Z,82.40
2018-05-11T01:13:00.828Z,82.30
2018-05-11T01:15:29.220Z,83.40
2018-05-11T01:17:56.741Z,83.40
2018-05-11T01:20:24.456Z,83.40
2018-05-11T01:22:51.980Z,83.50
2018-05-11T01:25:20.299Z,83.10
2018-05-11T01:27:47.810Z,83.00
2018-05-11T01:30:15.391Z,83.60
2018-05-11T01:32:43.749Z,83.70
2018-05-11T01:35:12.107Z,83.60
2018-05-11T01:37:39.563Z,83.50
2018-05-11T01:40:07.093Z,83.20
2018-05-11T01:42:34.717Z,83.30
2018-05-11T01:45:02.995Z,83.90
2018-05-11T01:47:30.555Z,83.90
2018-05-11T01:49:58.067Z,83.90
2018-05-11T01:52:25.632Z,83.70
2018-05-11T01:54:53.128Z,83.80
2018-05-11T01:57:20.640Z,83.80
2018-05-11T01:59:48.150Z,83.90
2018-05-11T02:02:15.658Z,84.10
2018-05-11T02:04:43.172Z,83.60
2018-05-11T02:07:10.729Z,83.80
2018-05-11T02:09:38.236Z,85.40
2018-05-11T02:12:05.955Z,85.20
2018-05-11T02:14:33.565Z,85.90
2018-05-11T02:17:01.157Z,85.40
2018-05-11T02:19:29.432Z,84.70
2018-05-11T02:21:57.747Z,84.40
2018-05-11T02:24:25.329Z,84.40
2018-05-11T02:26:52.824Z,84.20
2018-05-11T02:29:21.224Z,84.00
2018-05-11T02:31:49.600Z,84.40
2018-05-11T02:34:17.245Z,84.30
2018-05-11T02:36:45.504Z,88.30
2018-05-11T02:39:13.008Z,88.20
2018-05-11T02:41:40.500Z,88.90
2018-05-11T02:44:08.013Z,90.50
2018-05-11T02:46:35.538Z,91.10
2018-05-11T02:49:03.060Z,91.30
2018-05-11T02:51:30.567Z,91.80
2018-05-11T02:53:59.000Z,92.30
2018-05-11T02:56:26.503Z,92.20
2018-05-11T02:58:54.924Z,92.80
2018-05-11T03:01:22.433Z,92.80
2018-05-11T03:03:49.941Z,93.10
2018-05-11T03:06:17.472Z,93.40
2018-05-11T03:08:44.974Z,93.50
2018-05-11T03:11:13.100Z,93.60
2018-05-11T03:13:41.480Z,93.30
2018-05-11T03:16:09.048Z,93.30
2018-05-11T03:18:37.419Z,93.70
2018-05-11T03:21:05.696Z,94.40
2018-05-11T03:23:33.202Z,94.00
2018-05-11T03:26:00.724Z,94.40
2018-05-11T03:28:28.229Z,94.30
2018-05-11T03:30:55.758Z,94.30
2018-05-11T03:33:23.256Z,94.10
2018-05-11T03:35:50.770Z,94.10
2018-05-11T03:38:18.254Z,93.80
2018-05-11T03:40:46.699Z,93.00
2018-05-11T03:43:14.212Z,93.00
2018-05-11T03:45:41.889Z,93.10
2018-05-11T03:48:10.153Z,93.40
2018-05-11T03:50:37.693Z,93.40
2018-05-11T03:53:05.199Z,93.30
2018-05-11T03:55:32.703Z,92.60
2018-05-11T03:58:00.207Z,92.00
2018-05-11T04:00:28.469Z,90.90
2018-05-11T04:03:08.629Z,90.50
2018-05-11T04:05:48.729Z,90.50
2018-05-11T04:08:28.183Z,90.50
2018-05-11T04:10:55.681Z,90.20
2018-05-11T04:13:23.973Z,90.00
2018-05-11T04:15:51.526Z,90.00
2018-05-11T04:18:19.037Z,89.00
2018-05-11T04:20:46.551Z,88.50
2018-05-11T04:23:14.839Z,88.80
2018-05-11T04:25:42.346Z,88.80
2018-05-11T04:28:09.873Z,89.40
2018-05-11T04:30:37.461Z,88.40
2018-05-11T04:33:04.997Z,87.60
2018-05-11T04:35:32.509Z,87.50
2018-05-11T04:38:00.020Z,86.70
2018-05-11T04:40:27.583Z,86.30
2018-05-11T04:42:55.109Z,86.20
2018-05-11T04:45:22.839Z,85.80
2018-05-11T04:47:50.279Z,84.70
2018-05-11T04:50:18.681Z,83.90
2018-05-11T04:52:46.933Z,83.60
2018-05-11T04:55:15.220Z,82.80
2018-05-11T04:57:43.531Z,82.80
2018-05-11T05:00:11.111Z,82.80
2018-05-11T05:02:38.605Z,83.10
2018-05-11T05:05:06.901Z,84.30
2018-05-11T05:07:34.387Z,84.10
2018-05-11T05:10:01.949Z,84.30
2018-05-11T05:12:29.825Z,85.10
2018-05-11T05:14:57.249Z,84.00
2018-05-11T05:17:24.761Z,83.70
2018-05-11T05:19:52.290Z,83.00
2018-05-11T05:22:19.833Z,82.00
2018-05-11T05:24:47.349Z,81.80
2018-05-11T05:27:14.883Z,81.20
2018-05-11T05:29:42.387Z,80.40
2018-05-11T05:32:09.915Z,79.70
2018-05-11T05:34:37.407Z,79.30
2018-05-11T05:37:04.949Z,78.90
2018-05-11T05:39:33.323Z,77.20
2018-05-11T05:42:01.609Z,76.50
2018-05-11T05:44:29.899Z,75.80
2018-05-11T05:46:57.417Z,75.60
2018-05-11T05:49:25.053Z,75.40
2018-05-11T05:51:52.562Z,75.60
2018-05-11T05:54:20.947Z,77.20
2018-05-11T05:56:49.228Z,77.30
2018-05-11T05:59:16.743Z,77.30
2018-05-11T06:01:44.253Z,77.10
2018-05-11T06:04:11.781Z,76.90
2018-05-11T06:06:40.071Z,77.30
2018-05-11T06:09:07.636Z,77.20
2018-05-11T06:11:35.166Z,77.50
2018-05-11T06:14:03.860Z,77.00
2018-05-11T06:16:32.124Z,75.60
2018-05-11T06:18:59.686Z,75.60
2018-05-11T06:21:27.168Z,75.80
2018-05-11T06:23:54.685Z,76.30
2018-05-11T06:26:22.240Z,77.10
2018-05-11T06:28:49.742Z,76.90
2018-05-11T06:31:17.299Z,76.80
2018-05-11T06:33:44.835Z,75.30
2018-05-11T06:36:12.408Z,73.80
2018-05-11T06:38:40.784Z,71.00
2018-05-11T06:41:09.056Z,69.70
2018-05-11T06:43:37.279Z,69.30
2018-05-11T06:46:04.845Z,69.30
2018-05-11T06:48:33.073Z,66.00
2018-05-11T06:51:01.380Z,65.70
2018-05-11T06:53:28.893Z,65.70
2018-05-11T06:55:57.307Z,64.40
2018-05-11T06:58:25.541Z,63.60
2018-05-11T07:00:53.818Z,63.00
2018-05-11T07:03:22.096Z,62.70
2018-05-11T07:05:49.611Z,61.90
2018-05-11T07:08:17.147Z,61.50
2018-05-11T07:10:44.671Z,62.40
2018-05-11T07:13:12.927Z,63.20
2018-05-11T07:15:40.432Z,62.40
2018-05-11T07:18:07.935Z,61.20
2018-05-11T07:20:35.498Z,59.90
2018-05-11T07:23:03.090Z,60.40
2018-05-11T07:25:31.376Z,59.60
2018-05-11T07:27:58.933Z,59.60
2018-05-11T07:30:26.488Z,59.00
2018-05-11T07:32:54.801Z,57.80
2018-05-11T07:35:22.300Z,57.80
2018-05-11T07:37:49.802Z,57.30
2018-05-11T07:40:17.317Z,57.10
2018-05-11T07:42:44.840Z,57.30
2018-05-11T07:45:12.372Z,58.50
2018-05-11T07:47:39.898Z,57.80
2018-05-11T07:50:08.181Z,60.50
2018-05-11T07:52:36.500Z,62.80
2018-05-11T07:55:04.108Z,62.60
2018-05-11T07:57:32.384Z,62.10
2018-05-11T08:00:00.668Z,63.00
2018-05-11T08:02:28.960Z,62.70
2018-05-11T08:04:56.504Z,62.70
2018-05-11T08:07:24.780Z,62.40
2018-05-11T08:09:53.160Z,61.80
2018-05-11T08:12:20.741Z,61.80
2018-05-11T08:14:48.285Z,61.30
2018-05-11T08:17:16.545Z,60.50
2018-05-11T08:19:44.823Z,59.60
2018-05-11T08:22:13.085Z,59.10
2018-05-11T08:24:40.611Z,59.10
2018-05-11T08:27:08.134Z,59.40
2018-05-11T08:29:35.706Z,60.50
2018-05-11T08:32:03.206Z,60.10
2018-05-11T08:34:31.622Z,62.10
2018-05-11T08:36:59.202Z,62.20
2018-05-11T08:39:26.779Z,62.40
2018-05-11T08:41:54.274Z,64.30
2018-05-11T08:44:22.537Z,65.70
2018-05-11T08:46:51.717Z,67.00
2018-05-11T08:49:19.356Z,67.00
2018-05-11T08:51:46.855Z,67.60
2018-05-11T08:54:14.742Z,66.60
2018-05-11T08:56:43.049Z,67.00
2018-05-11T08:59:10.545Z,66.90
2018-05-11T09:01:39.056Z,66.20
2018-05-11T09:04:07.375Z,66.50
2018-05-11T09:06:34.949Z,66.50
2018-05-11T09:09:02.461Z,66.30
2018-05-11T09:11:29.986Z,65.60
2018-05-11T09:13:57.673Z,65.20
2018-05-11T09:16:25.980Z,64.60
2018-05-11T09:18:53.519Z,64.60
2018-05-11T09:21:22.218Z,62.30
2018-05-11T09:23:51.007Z,62.20
2018-05-11T09:26:18.582Z,61.00
2018-05-11T09:28:46.056Z,58.90
2018-05-11T09:31:13.585Z,58.30
2018-05-11T09:33:41.149Z,55.80
2018-05-11T09:36:09.443Z,55.10
2018-05-11T09:38:37.557Z,53.50
2018-05-11T09:41:05.910Z,53.40
2018-05-11T09:43:33.725Z,53.30
2018-05-11T09:46:01.582Z,53.00
2018-05-11T09:48:29.749Z,53.00
2018-05-11T09:50:58.068Z,51.90
2018-05-11T09:53:25.585Z,51.70
2018-05-11T09:55:53.853Z,51.40
2018-05-11T09:58:22.150Z,52.30
2018-05-11T10:00:50.742Z,52.80
2018-05-11T10:03:18.160Z,51.90
2018-05-11T10:05:46.426Z,51.40
2018-05-11T10:08:14.165Z,51.40
2018-05-11T10:10:41.656Z,53.00
2018-05-11T10:13:20.819Z,52.90
2018-05-11T10:15:48.390Z,52.70
2018-05-11T10:18:15.943Z,50.30
2018-05-11T10:20:43.513Z,50.00
2018-05-11T10:23:12.198Z,47.70
2018-05-11T10:25:39.785Z,47.70
2018-05-11T10:28:07.411Z,48.00
2018-05-11T10:30:34.905Z,47.40
2018-05-11T10:33:02.419Z,48.50
2018-05-11T10:35:30.025Z,47.60
2018-05-11T10:37:57.620Z,47.20
2018-05-11T10:40:25.280Z,47.60
2018-05-11T10:42:52.815Z,48.90
2018-05-11T10:45:20.381Z,47.20
2018-05-11T10:47:48.648Z,44.50
2018-05-11T10:50:16.167Z,44.40
2018-05-11T10:52:43.673Z,45.80
2018-05-11T10:55:11.171Z,46.00
2018-05-11T10:57:39.413Z,45.20
2018-05-11T11:00:07.765Z,45.00
2018-05-11T11:02:35.298Z,45.00
2018-05-11T11:05:02.895Z,45.00
2018-05-11T11:07:30.432Z,45.30
2018-05-11T11:09:58.042Z,44.80
2018-05-11T11:12:25.572Z,45.70
2018-05-11T11:14:53.999Z,44.90
2018-05-11T11:17:21.618Z,44.80
2018-05-11T11:19:49.908Z,45.10
2018-05-11T11:22:17.456Z,44.50
2018-05-11T11:24:45.850Z,43.30
2018-05-11T11:27:13.353Z,43.20
2018-05-11T11:29:40.885Z,43.60
2018-05-11T11:32:09.436Z,43.90
2018-05-11T11:34:37.672Z,44.70
2018-05-11T11:37:05.279Z,42.20
2018-05-11T11:39:33.743Z,45.60
2018-05-11T11:42:02.051Z,46.30
2018-05-11T11:44:29.541Z,46.20
2018-05-11T11:46:57.169Z,45.80
2018-05-11T11:49:24.733Z,45.40
2018-05-11T11:51:52.227Z,45.20
2018-05-11T11:54:19.748Z,45.90
2018-05-11T11:56:47.314Z,45.30
2018-05-11T11:59:16.870Z,46.40
2018-05-11T12:01:45.173Z,46.20
2018-05-11T12:04:12.694Z,46.20
2018-05-11T12:06:40.215Z,45.50
2018-05-11T12:09:07.833Z,45.40
2018-05-11T12:11:36.069Z,44.10
2018-05-11T12:14:03.631Z,44.00
2018-05-11T12:16:31.216Z,41.20
2018-05-11T12:18:59.544Z,41.20
2018-05-11T12:21:32.224Z,41.20
2018-05-11T12:23:59.778Z,42.30
2018-05-11T12:26:27.268Z,42.50
2018-05-11T12:28:54.852Z,42.60
2018-05-11T12:31:23.148Z,43.70
2018-05-11T12:33:50.628Z,43.70
2018-05-11T12:36:18.273Z,43.40
2018-05-11T12:38:45.750Z,42.90
2018-05-11T12:41:13.329Z,42.80
2018-05-11T12:43:41.518Z,42.70
2018-05-11T12:46:09.036Z,42.20
2018-05-11T12:48:36.534Z,42.00
2018-05-11T12:51:04.829Z,42.10
2018-05-11T12:53:33.096Z,41.50
2018-05-11T12:56:00.611Z,41.50
2018-05-11T12:58:28.126Z,43.00
2018-05-11T13:00:56.448Z,43.00
2018-05-11T13:03:23.928Z,43.00
2018-05-11T13:05:51.467Z,41.70
2018-05-11T13:08:19.014Z,42.40
2018-05-11T13:10:51.500Z,43.50
2018-05-11T13:13:19.007Z,43.50
2018-05-11T13:15:47.327Z,43.00
2018-05-11T13:18:21.300Z,42.90
2018-05-11T13:20:49.920Z,44.00
2018-05-11T13:23:17.877Z,43.30
2018-05-11T13:25:47.479Z,43.80
2018-05-11T13:28:15.019Z,44.90
2018-05-11T13:30:43.332Z,44.20
2018-05-11T13:33:10.935Z,44.10
2018-05-11T13:35:38.446Z,45.10
2018-05-11T13:38:06.005Z,45.60
2018-05-11T13:40:43.250Z,45.60
2018-05-11T13:43:11.573Z,45.40
2018-05-11T13:45:46.209Z,46.00
2018-05-11T13:48:13.752Z,45.40
2018-05-11T13:50:41.313Z,46.10
2018-05-11T13:53:08.801Z,47.60
2018-05-11T13:55:36.529Z,46.70
2018-05-11T13:58:04.133Z,46.00
2018-05-11T14:00:31.655Z,46.40
2018-05-11T14:02:59.184Z,45.60
2018-05-11T14:05:26.725Z,45.80
2018-05-11T14:07:55.017Z,45.60
2018-05-11T14:10:23.335Z,46.30
2018-05-11T14:12:50.829Z,46.30
2018-05-11T14:15:18.379Z,46.40
2018-05-11T14:17:46.039Z,46.80
2018-05-11T14:20:13.535Z,45.30
2018-05-11T14:22:41.045Z,45.70
2018-05-11T14:25:08.577Z,45.80
2018-05-11T14:27:36.213Z,45.40
2018-05-11T14:30:03.731Z,43.70
2018-05-11T14:32:31.255Z,43.50
2018-05-11T14:34:58.749Z,47.20
2018-05-11T14:37:27.751Z,48.60
2018-05-11T14:39:55.621Z,49.20
2018-05-11T14:42:23.199Z,48.60
2018-05-11T14:44:51.484Z,48.40
2018-05-11T14:47:19.763Z,47.60
2018-05-11T14:49:47.524Z,47.60
2018-05-11T14:52:14.975Z,48.50
2018-05-11T14:54:47.349Z,48.90
2018-05-11T14:57:15.651Z,47.80
2018-05-11T14:59:43.157Z,47.80
2018-05-11T15:02:10.657Z,45.90
2018-05-11T15:04:38.191Z,44.50
2018-05-11T15:07:06.463Z,44.80
2018-05-11T15:09:33.967Z,44.80
2018-05-11T15:12:01.503Z,46.10
2018-05-11T15:14:28.959Z,46.30
2018-05-11T15:16:57.249Z,45.40
2018-05-11T15:19:24.757Z,45.40
2018-05-11T15:21:53.555Z,45.20
2018-05-11T15:24:21.128Z,47.10
2018-05-11T15:26:48.577Z,48.70
2018-05-11T15:29:16.953Z,46.70
2018-05-11T15:31:45.199Z,46.80
2018-05-11T15:34:12.770Z,46.80
2018-05-11T15:36:40.395Z,45.90
2018-05-11T15:39:07.981Z,44.70
2018-05-11T15:41:35.508Z,45.80
2018-05-11T15:44:03.026Z,45.50
2018-05-11T15:46:31.279Z,46.10
2018-05-11T15:48:58.795Z,46.10
2018-05-11T15:51:26.350Z,45.10
2018-05-11T15:53:53.873Z,44.70
2018-05-11T15:56:22.249Z,45.70
2018-05-11T15:58:50.666Z,46.70
2018-05-11T16:01:18.152Z,46.70
2018-05-11T16:03:45.706Z,46.90
2018-05-11T16:06:13.326Z,44.50
2018-05-11T16:08:41.199Z,46.00
2018-05-11T16:11:08.697Z,46.10
2018-05-11T16:13:36.202Z,45.00
2018-05-11T16:16:04.485Z,45.40
2018-05-11T16:18:31.996Z,45.40
2018-05-11T16:20:59.501Z,44.80
2018-05-11T16:23:27.038Z,44.80
2018-05-11T16:25:54.543Z,45.80
2018-05-11T16:28:22.135Z,45.60
2018-05-11T16:30:49.621Z,46.90
2018-05-11T16:33:17.871Z,45.60
2018-05-11T16:35:45.409Z,45.60
2018-05-11T16:38:12.945Z,46.20
2018-05-11T16:40:40.461Z,45.90
2018-05-11T16:43:09.120Z,48.00
2018-05-11T16:45:36.641Z,48.00
2018-05-11T16:48:04.601Z,49.30
2018-05-11T16:50:32.611Z,47.70
2018-05-11T16:53:00.122Z,47.80
2018-05-11T16:55:28.802Z,48.80
2018-05-11T16:57:57.075Z,47.60
2018-05-11T17:00:24.657Z,47.60
2018-05-11T17:02:52.155Z,47.30
2018-05-11T17:05:19.647Z,46.80
2018-05-11T17:07:47.908Z,48.40
2018-05-11T17:10:16.289Z,49.60
2018-05-11T17:12:44.672Z,49.80
2018-05-11T17:15:13.531Z,50.10
2018-05-11T17:17:41.127Z,50.00
2018-05-11T17:20:09.372Z,49.10
2018-05-11T17:22:37.696Z,50.30
2018-05-11T17:25:05.936Z,49.00
2018-05-11T17:27:39.688Z,51.10
2018-05-11T17:30:07.247Z,51.00
2018-05-11T17:32:34.815Z,50.50
2018-05-11T17:35:02.311Z,50.50
2018-05-11T17:37:29.845Z,50.20
2018-05-11T17:39:57.359Z,51.50
2018-05-11T17:42:25.622Z,51.70
2018-05-11T17:44:53.884Z,52.10
2018-05-11T17:47:22.173Z,52.10
2018-05-11T17:49:50.513Z,51.80
2018-05-11T17:52:18.096Z,51.80
2018-05-11T17:54:46.411Z,52.20
2018-05-11T17:57:14.056Z,52.20
2018-05-11T17:59:43.264Z,52.50
2018-05-11T18:02:10.761Z,52.50
2018-05-11T18:04:38.283Z,52.40
2018-05-11T18:07:05.780Z,52.80
2018-05-11T18:09:33.328Z,53.50
2018-05-11T18:12:00.917Z,54.50
2018-05-11T18:14:28.354Z,54.50
2018-05-11T18:16:55.873Z,54.30
2018-05-11T18:19:23.396Z,54.50
2018-05-11T18:21:52.389Z,54.60
2018-05-11T18:24:20.659Z,55.00
2018-05-11T18:26:49.656Z,55.00
2018-05-11T18:29:17.536Z,54.90
2018-05-11T18:31:45.812Z,55.80
2018-05-11T18:34:14.076Z,55.90
2018-05-11T18:36:42.378Z,55.70
2018-05-11T18:39:09.879Z,55.80
2018-05-11T18:41:37.414Z,55.80
2018-05-11T18:44:04.929Z,56.20
2018-05-11T18:46:32.497Z,56.30
2018-05-11T18:49:00.799Z,56.50
2018-05-11T18:51:28.374Z,56.50
2018-05-11T18:53:56.244Z,56.70
2018-05-11T18:56:24.267Z,57.20
2018-05-11T18:58:52.538Z,57.20
2018-05-11T19:01:21.071Z,57.50
2018-05-11T19:03:48.568Z,57.40
2018-05-11T19:06:16.113Z,57.50
2018-05-11T19:08:44.424Z,58.00
2018-05-11T19:11:13.460Z,58.20
2018-05-11T19:13:41.282Z,58.20
2018-05-11T19:16:09.560Z,58.40
2018-05-11T19:18:37.870Z,58.70
2018-05-11T19:21:05.404Z,58.70
2018-05-11T19:23:33.076Z,58.90
2018-05-11T19:26:00.633Z,59.30
2018-05-11T19:28:28.869Z,60.00
2018-05-11T19:30:58.843Z,60.50
2018-05-11T19:33:26.379Z,60.50
2018-05-11T19:35:53.907Z,60.60
2018-05-11T19:38:22.174Z,61.10
2018-05-11T19:40:50.470Z,61.00
2018-05-11T19:43:18.732Z,61.10
2018-05-11T19:45:46.993Z,61.90
2018-05-11T19:48:14.553Z,61.40
2018-05-11T19:50:46.221Z,61.70
2018-05-11T19:53:13.821Z,61.70
2018-05-11T19:55:41.377Z,62.20
2018-05-11T19:58:08.895Z,62.40
2018-05-11T20:00:42.215Z,62.30
2018-05-11T20:03:10.516Z,62.60
2018-05-11T20:05:38.047Z,62.60
2018-05-11T20:08:06.525Z,62.90
2018-05-11T20:10:34.917Z,62.80
2018-05-11T20:13:03.159Z,62.80
2018-05-11T20:15:31.671Z,62.80
2018-05-11T20:17:59.925Z,62.90
2018-05-11T20:20:28.757Z,63.00
2018-05-11T20:22:56.245Z,63.00
2018-05-11T20:25:23.869Z,64.00
2018-05-11T20:27:51.529Z,63.40
2018-05-11T20:30:19.555Z,63.60
2018-05-11T20:32:48.642Z,63.40
2018-05-11T20:35:16.176Z,64.00
2018-05-11T20:37:43.672Z,64.30
2018-05-11T20:40:14.684Z,65.70
2018-05-11T20:42:42.305Z,64.80
2018-05-11T20:45:09.837Z,65.30
2018-05-11T20:47:38.138Z,66.00
2018-05-11T20:50:05.725Z,66.00
2018-05-11T20:52:33.262Z,66.40
2018-05-11T20:55:00.786Z,66.40
2018-05-11T20:57:29.051Z,66.40
2018-05-11T20:59:56.529Z,66.40
2018-05-11T21:02:24.827Z,66.20
2018-05-11T21:04:52.381Z,66.10
2018-05-11T21:07:20.721Z,66.30
2018-05-11T21:09:48.235Z,66.30
2018-05-11T21:12:15.761Z,66.40
2018-05-11T21:14:44.088Z,66.60
2018-05-11T21:17:11.672Z,66.60
2018-05-11T21:19:39.226Z,66.50
2018-05-11T21:22:06.755Z,66.60
2018-05-11T21:24:34.287Z,66.60
2018-05-11T21:27:01.885Z,66.90
2018-05-11T21:29:29.409Z,66.90
2018-05-11T21:31:56.961Z,66.90
2018-05-11T21:34:27.231Z,67.20
2018-05-11T21:36:56.465Z,67.50
2018-05-11T21:39:24.797Z,67.80
2018-05-11T21:41:52.294Z,67.80
2018-05-11T21:44:20.633Z,68.30
2018-05-11T21:46:48.136Z,68.20
2018-05-11T21:49:16.399Z,68.90
2018-05-11T21:51:44.756Z,69.20
2018-05-11T21:54:12.245Z,69.20
2018-05-11T21:56:40.943Z,69.90
2018-05-11T21:59:09.304Z,69.90
2018-05-11T22:01:37.693Z,69.90
2018-05-11T22:04:06.027Z,70.00
2018-05-11T22:06:33.516Z,70.00
2018-05-11T22:09:01.961Z,70.30
2018-05-11T22:11:29.452Z,70.30
2018-05-11T22:13:58.654Z,70.30
2018-05-11T22:16:26.950Z,70.60
2018-05-11T22:18:54.501Z,70.60
2018-05-11T22:21:22.764Z,71.10
2018-05-11T22:23:51.048Z,71.40
2018-05-11T22:26:18.543Z,71.40
2018-05-11T22:28:46.084Z,71.70
2018-05-11T22:31:13.616Z,71.80
2018-05-11T22:33:41.145Z,72.30
2018-05-11T22:36:08.672Z,72.30
2018-05-11T22:38:36.148Z,72.80
2018-05-11T22:41:03.690Z,73.00
2018-05-11T22:43:31.171Z,72.90
2018-05-11T22:45:58.788Z,72.70
2018-05-11T22:48:26.412Z,72.60
2018-05-11T22:50:54.686Z,72.40
2018-05-11T22:53:22.253Z,72.40
2018-05-11T22:55:50.670Z,72.50
2018-05-11T22:58:18.193Z,72.50
2018-05-11T23:00:46.548Z,73.30
2018-05-11T23:03:14.169Z,73.20
2018-05-11T23:05:41.902Z,74.30
2018-05-11T23:08:09.421Z,73.70
2018-05-11T23:10:36.981Z,74.20
2018-05-11T23:13:04.523Z,74.20
2018-05-11T23:15:32.083Z,74.30
2018-05-11T23:17:59.588Z,74.30
2018-05-11T23:20:27.859Z,74.20
2018-05-11T23:22:56.133Z,74.10
2018-05-11T23:25:24.414Z,74.30
2018-05-11T23:27:53.570Z,74.30
2018-05-11T23:30:21.061Z,74.30
2018-05-11T23:32:49.336Z,74.40
2018-05-11T23:35:24.428Z,74.40
2018-05-11T23:37:52.041Z,74.40
2018-05-11T23:40:20.313Z,74.50
2018-05-11T23:42:47.823Z,74.50
2018-05-11T23:45:15.501Z,74.50
2018-05-11T23:47:43.000Z,74.60
2018-05-11T23:50:10.549Z,74.70
2018-05-11T23:52:38.836Z,74.90
2018-05-11T23:55:06.338Z,74.90
2018-05-11T23:57:33.941Z,75.30
